createdAt,value
2018-12-11T00:00:07.076Z,5.29
2018-12-11T00:01:07.081Z,5.24
2018-12-11T00:02:07.084Z,5.26
2018-12-11T00:03:07.080Z,5.19
2018-12-11T00:04:07.099Z,5.20
2018-12-11T00:05:07.090Z,5.14
2018-12-11T00:06:07.100Z,5.06
2018-12-11T00:07:07.115Z,5.08
2018-12-11T00:08:07.103Z,4.99
2018-12-11T00:09:07.092Z,5.06
2018-12-11T00:10:07.099Z,5.08
2018-12-11T00:11:07.101Z,5.02
2018-12-11T00:13:07.108Z,5.02
2018-12-11T00:14:07.108Z,5.05
2018-12-11T00:15:07.122Z,5.01
2018-12-11T00:16:07.111Z,5.04
2018-12-11T00:17:07.120Z,5.02
2018-12-11T00:18:07.130Z,5.11
2018-12-11T00:21:07.122Z,5.22
2018-12-11T00:22:07.120Z,5.22
2018-12-11T00:23:07.123Z,5.30
2018-12-11T00:24:07.122Z,5.30
2018-12-11T00:25:07.134Z,5.24
2018-12-11T00:26:07.135Z,5.20
2018-12-11T00:27:07.131Z,5.29
2018-12-11T00:28:07.138Z,5.20
2018-12-11T00:29:07.180Z,5.32
2018-12-11T00:30:07.135Z,5.20
2018-12-11T00:31:07.145Z,5.26
2018-12-11T00:32:07.152Z,5.20
2018-12-11T00:33:07.143Z,5.24
2018-12-11T00:34:07.137Z,5.19
2018-12-11T00:35:07.146Z,5.20
2018-12-11T00:36:07.152Z,5.17
2018-12-11T00:37:07.148Z,5.19
2018-12-11T00:38:07.150Z,5.14
2018-12-11T00:39:07.160Z,5.11
2018-12-11T00:40:07.163Z,5.09
2018-12-11T00:42:07.153Z,5.05
2018-12-11T00:43:07.161Z,5.05
2018-12-11T00:44:07.164Z,5.04
2018-12-11T00:45:07.164Z,5.01
2018-12-11T00:46:07.166Z,5.01
2018-12-11T00:47:07.175Z,5.04
2018-12-11T00:48:07.169Z,4.97
2018-12-11T00:49:07.170Z,5.05
2018-12-11T00:50:07.169Z,5.02
2018-12-11T00:51:07.173Z,5.02
2018-12-11T00:52:07.170Z,5.06
2018-12-11T00:53:07.177Z,5.02
2018-12-11T00:54:07.180Z,4.97
2018-12-11T00:55:07.186Z,4.96
2018-12-11T00:56:07.192Z,4.93
2018-12-11T00:57:07.185Z,4.96
2018-12-11T00:58:07.187Z,4.90
2018-12-11T00:59:07.187Z,4.91
2018-12-11T01:00:07.188Z,4.91
2018-12-11T01:01:07.201Z,4.99
2018-12-11T01:02:07.182Z,4.94
2018-12-11T01:03:07.189Z,4.88
2018-12-11T01:04:07.204Z,4.88
2018-12-11T01:05:07.192Z,4.91
2018-12-11T01:06:07.223Z,4.90
2018-12-11T01:07:07.204Z,4.80
2018-12-11T01:08:07.200Z,4.87
2018-12-11T01:09:07.207Z,4.84
2018-12-11T01:10:07.196Z,4.91
2018-12-11T01:11:07.207Z,4.84
2018-12-11T01:12:07.207Z,4.84
2018-12-11T01:13:07.218Z,4.87
2018-12-11T01:14:07.215Z,4.88
2018-12-11T01:15:07.215Z,4.90
2018-12-11T01:16:07.217Z,4.86
2018-12-11T01:17:07.215Z,4.86
2018-12-11T01:18:07.218Z,4.86
2018-12-11T01:19:07.220Z,4.88
2018-12-11T01:20:07.217Z,4.88
2018-12-11T01:21:07.222Z,4.87
2018-12-11T01:22:07.225Z,4.83
2018-12-11T01:23:07.231Z,4.80
2018-12-11T01:24:07.223Z,4.84
2018-12-11T01:25:07.228Z,4.77
2018-12-11T01:26:07.230Z,4.74
2018-12-11T01:27:07.231Z,4.79
2018-12-11T01:28:07.236Z,4.77
2018-12-11T01:29:07.238Z,4.80
2018-12-11T01:30:07.253Z,4.79
2018-12-11T01:31:07.244Z,4.68
2018-12-11T01:32:07.247Z,4.67
2018-12-11T01:33:07.241Z,4.68
2018-12-11T01:34:07.246Z,4.68
2018-12-11T01:35:07.247Z,4.75
2018-12-11T01:36:07.247Z,4.69
2018-12-11T01:37:07.244Z,4.77
2018-12-11T01:38:07.247Z,4.74
2018-12-11T01:39:07.264Z,4.74
2018-12-11T01:40:07.242Z,4.68
2018-12-11T01:41:07.257Z,4.74
2018-12-11T01:42:07.260Z,4.74
2018-12-11T01:43:07.251Z,4.74
2018-12-11T01:44:07.259Z,4.71
2018-12-11T01:45:07.260Z,4.69
2018-12-11T01:46:07.259Z,4.75
2018-12-11T01:47:07.260Z,4.71
2018-12-11T01:48:07.273Z,4.72
2018-12-11T01:49:07.266Z,4.71
2018-12-11T01:50:07.275Z,4.71
2018-12-11T01:51:07.272Z,4.71
2018-12-11T01:52:07.273Z,4.72
2018-12-11T01:53:07.315Z,4.71
2018-12-11T01:54:07.270Z,4.80
2018-12-11T01:55:07.268Z,4.69
2018-12-11T01:56:07.269Z,4.71
2018-12-11T01:57:07.283Z,4.68
2018-12-11T01:59:07.281Z,4.79
2018-12-11T02:00:07.283Z,4.69
2018-12-11T02:01:07.287Z,4.72
2018-12-11T02:02:07.281Z,4.71
2018-12-11T02:03:07.283Z,4.77
2018-12-11T02:04:07.288Z,4.75
2018-12-11T02:05:07.295Z,4.75
2018-12-11T02:06:07.289Z,4.75
2018-12-11T02:07:07.291Z,4.74
2018-12-11T02:08:07.296Z,4.64
2018-12-11T02:09:07.299Z,4.59
2018-12-11T02:10:07.299Z,4.59
2018-12-11T02:11:07.291Z,4.64
2018-12-11T02:12:07.298Z,4.68
2018-12-11T02:13:07.310Z,4.71
2018-12-11T02:14:07.310Z,4.69
2018-12-11T02:15:07.301Z,4.59
2018-12-11T02:17:07.309Z,4.69
2018-12-11T02:18:07.319Z,4.68
2018-12-11T02:19:07.315Z,4.74
2018-12-11T02:20:07.313Z,4.64
2018-12-11T02:21:07.311Z,4.67
2018-12-11T02:22:07.311Z,4.61
2018-12-11T02:23:07.315Z,4.69
2018-12-11T02:24:07.330Z,4.65
2018-12-11T02:25:07.320Z,4.64
2018-12-11T02:26:07.318Z,4.61
2018-12-11T02:27:07.323Z,4.62
2018-12-11T02:28:07.325Z,4.71
2018-12-11T02:29:07.325Z,4.61
2018-12-11T02:30:07.328Z,4.56
2018-12-11T02:31:07.325Z,4.67
2018-12-11T02:32:07.328Z,4.65
2018-12-11T02:33:07.325Z,4.65
2018-12-11T02:34:07.346Z,4.72
2018-12-11T02:35:07.325Z,4.67
2018-12-11T02:36:07.337Z,4.62
2018-12-11T02:37:07.344Z,4.69
2018-12-11T02:38:07.346Z,4.62
2018-12-11T02:39:07.344Z,4.62
2018-12-11T02:40:07.343Z,4.65
2018-12-11T02:41:07.350Z,4.65
2018-12-11T02:42:07.346Z,4.65
2018-12-11T02:43:07.362Z,4.62
2018-12-11T02:44:07.342Z,4.68
2018-12-11T02:45:07.351Z,4.69
2018-12-11T02:46:07.353Z,4.67
2018-12-11T02:47:07.364Z,4.71
2018-12-11T02:48:07.358Z,4.74
2018-12-11T02:49:07.357Z,4.69
2018-12-11T02:50:07.368Z,4.69
2018-12-11T02:51:07.359Z,4.64
2018-12-11T02:52:07.359Z,4.69
2018-12-11T02:53:07.363Z,4.69
2018-12-11T02:54:07.362Z,4.74
2018-12-11T02:55:07.364Z,4.74
2018-12-11T02:56:07.370Z,4.69
2018-12-11T02:57:07.373Z,4.68
2018-12-11T02:58:07.374Z,4.74
2018-12-11T02:59:07.365Z,4.69
2018-12-11T03:00:07.442Z,4.74
2018-12-11T03:01:07.371Z,4.68
2018-12-11T03:02:07.374Z,4.71
2018-12-11T03:03:07.374Z,4.68
2018-12-11T03:04:07.373Z,4.74
2018-12-11T03:05:07.378Z,4.59
2018-12-11T03:06:07.380Z,4.62
2018-12-11T03:07:07.384Z,4.67
2018-12-11T03:08:07.375Z,4.65
2018-12-11T03:09:07.380Z,4.64
2018-12-11T03:10:07.385Z,4.67
2018-12-11T03:11:07.382Z,4.67
2018-12-11T03:12:07.386Z,4.69
2018-12-11T03:13:07.388Z,4.62
2018-12-11T03:14:07.399Z,4.68
2018-12-11T03:15:07.391Z,4.68
2018-12-11T03:16:07.396Z,4.64
2018-12-11T03:17:07.396Z,4.68
2018-12-11T03:18:07.395Z,4.65
2018-12-11T03:19:07.397Z,4.65
2018-12-11T03:20:07.402Z,4.67
2018-12-11T03:21:07.389Z,4.62
2018-12-11T03:22:07.403Z,4.67
2018-12-11T03:23:07.406Z,4.74
2018-12-11T03:24:07.404Z,4.68
2018-12-11T03:25:07.406Z,4.69
2018-12-11T03:26:07.407Z,4.65
2018-12-11T03:27:07.407Z,4.67
2018-12-11T03:28:07.409Z,4.65
2018-12-11T03:29:07.406Z,4.62
2018-12-11T03:30:07.411Z,4.71
2018-12-11T03:31:07.411Z,4.62
2018-12-11T03:32:07.551Z,4.68
2018-12-11T03:33:07.427Z,4.68
2018-12-11T03:34:07.422Z,4.65
2018-12-11T03:35:07.424Z,4.72
2018-12-11T03:36:07.421Z,4.69
2018-12-11T03:37:07.428Z,4.57
2018-12-11T03:38:07.424Z,4.65
2018-12-11T03:39:07.426Z,4.64
2018-12-11T03:40:07.427Z,4.65
2018-12-11T03:41:07.434Z,4.74
2018-12-11T03:42:07.437Z,4.59
2018-12-11T03:43:07.429Z,4.62
2018-12-11T03:44:07.430Z,4.68
2018-12-11T03:45:07.432Z,4.62
2018-12-11T03:46:07.434Z,4.62
2018-12-11T03:47:07.439Z,4.62
2018-12-11T03:48:07.438Z,4.67
2018-12-11T03:49:07.444Z,4.67
2018-12-11T03:50:07.451Z,4.68
2018-12-11T03:51:07.453Z,4.64
2018-12-11T03:52:07.446Z,4.62
2018-12-11T03:53:07.445Z,4.69
2018-12-11T03:54:07.447Z,4.67
2018-12-11T03:55:07.454Z,4.68
2018-12-11T03:56:07.456Z,4.64
2018-12-11T03:57:07.449Z,4.72
2018-12-11T03:58:07.456Z,4.68
2018-12-11T03:59:07.449Z,4.74
2018-12-11T04:00:07.455Z,4.59
2018-12-11T04:01:07.452Z,4.56
2018-12-11T04:02:07.455Z,4.61
2018-12-11T04:03:07.461Z,4.69
2018-12-11T04:04:07.459Z,4.61
2018-12-11T04:05:07.464Z,4.64
2018-12-11T04:06:07.463Z,4.71
2018-12-11T04:07:07.467Z,4.72
2018-12-11T04:08:07.469Z,4.64
2018-12-11T04:09:07.475Z,4.67
2018-12-11T04:10:07.473Z,4.69
2018-12-11T04:11:07.472Z,4.69
2018-12-11T04:12:07.477Z,4.62
2018-12-11T04:13:07.477Z,4.71
2018-12-11T04:14:07.485Z,4.62
2018-12-11T04:15:07.477Z,4.67
2018-12-11T04:16:07.497Z,4.65
2018-12-11T04:17:07.787Z,4.68
2018-12-11T04:18:07.475Z,4.67
2018-12-11T04:19:07.479Z,4.65
2018-12-11T04:20:07.483Z,4.74
2018-12-11T04:21:07.482Z,4.67
2018-12-11T04:22:07.493Z,4.69
2018-12-11T04:23:07.505Z,4.68
2018-12-11T04:24:07.493Z,4.71
2018-12-11T04:25:07.511Z,4.67
2018-12-11T04:26:07.492Z,4.67
2018-12-11T04:27:07.499Z,4.72
2018-12-11T04:28:07.504Z,4.67
2018-12-11T04:29:07.500Z,4.69
2018-12-11T04:30:07.503Z,4.62
2018-12-11T04:31:07.504Z,4.72
2018-12-11T04:32:07.502Z,4.65
2018-12-11T04:33:07.517Z,4.62
2018-12-11T04:34:07.563Z,4.62
2018-12-11T04:35:07.497Z,4.71
2018-12-11T04:36:07.507Z,4.65
2018-12-11T04:37:07.499Z,4.61
2018-12-11T04:38:07.500Z,4.67
2018-12-11T04:39:07.514Z,4.67
2018-12-11T04:40:07.516Z,4.71
2018-12-11T04:41:07.532Z,4.65
2018-12-11T04:42:07.531Z,4.59
2018-12-11T04:43:07.532Z,4.65
2018-12-11T04:44:07.541Z,4.62
2018-12-11T04:45:07.525Z,4.62
2018-12-11T04:46:07.521Z,4.68
2018-12-11T04:47:07.530Z,4.67
2018-12-11T04:48:07.571Z,4.69
2018-12-11T04:49:07.529Z,4.67
2018-12-11T04:50:07.584Z,4.67
2018-12-11T04:51:07.520Z,4.68
2018-12-11T04:52:07.536Z,4.69
2018-12-11T04:53:07.530Z,4.69
2018-12-11T04:54:07.521Z,4.69
2018-12-11T04:55:07.525Z,4.69
2018-12-11T04:56:07.526Z,4.67
2018-12-11T04:57:07.534Z,4.69
2018-12-11T04:58:07.538Z,4.69
2018-12-11T04:59:07.541Z,4.65
2018-12-11T05:00:07.558Z,4.68
2018-12-11T05:01:07.552Z,4.65
2018-12-11T05:02:07.553Z,4.61
2018-12-11T05:03:07.552Z,4.71
2018-12-11T05:04:07.560Z,4.71
2018-12-11T05:05:07.545Z,4.69
2018-12-11T05:06:07.544Z,4.69
2018-12-11T05:07:07.553Z,4.71
2018-12-11T05:08:07.556Z,4.72
2018-12-11T05:09:07.565Z,4.72
2018-12-11T05:10:07.553Z,4.72
2018-12-11T05:11:07.552Z,4.71
2018-12-11T05:12:07.568Z,4.83
2018-12-11T05:13:07.550Z,4.75
2018-12-11T05:14:07.555Z,4.75
2018-12-11T05:15:07.556Z,4.86
2018-12-11T05:16:07.558Z,4.80
2018-12-11T05:17:07.559Z,4.77
2018-12-11T05:18:07.568Z,4.84
2018-12-11T05:19:07.562Z,4.83
2018-12-11T05:20:07.568Z,4.88
2018-12-11T05:21:07.575Z,4.88
2018-12-11T05:22:07.573Z,4.86
2018-12-11T05:23:07.575Z,4.83
2018-12-11T05:24:07.577Z,4.88
2018-12-11T05:26:07.581Z,4.88
2018-12-11T05:27:07.585Z,4.87
2018-12-11T05:28:07.585Z,4.90
2018-12-11T05:29:07.602Z,4.90
2018-12-11T05:30:07.586Z,4.91
2018-12-11T05:31:07.607Z,4.91
2018-12-11T05:32:07.587Z,4.90
2018-12-11T05:33:07.648Z,4.96
2018-12-11T05:34:07.595Z,4.93
2018-12-11T05:35:07.594Z,4.99
2018-12-11T05:36:07.594Z,4.91
2018-12-11T05:37:07.597Z,5.01
2018-12-11T05:38:07.596Z,5.02
2018-12-11T05:39:07.602Z,4.99
2018-12-11T05:40:07.606Z,5.11
2018-12-11T05:41:07.608Z,4.97
2018-12-11T05:42:07.613Z,5.01
2018-12-11T05:43:07.610Z,5.05
2018-12-11T05:44:07.616Z,5.02
2018-12-11T05:45:07.610Z,5.04
2018-12-11T05:46:07.612Z,4.97
2018-12-11T05:47:07.625Z,5.02
2018-12-11T05:48:07.614Z,5.02
2018-12-11T05:49:07.620Z,5.04
2018-12-11T05:50:07.618Z,4.97
2018-12-11T05:51:07.622Z,4.99
2018-12-11T05:52:07.619Z,5.02
2018-12-11T05:53:07.623Z,5.02
2018-12-11T05:54:07.621Z,4.99
2018-12-11T05:55:07.627Z,4.91
2018-12-11T05:56:07.632Z,4.88
2018-12-11T05:57:07.634Z,4.93
2018-12-11T05:58:07.631Z,4.93
2018-12-11T05:59:07.637Z,4.87
2018-12-11T06:00:07.639Z,4.80
2018-12-11T06:01:07.643Z,4.90
2018-12-11T06:02:07.642Z,4.90
2018-12-11T06:03:07.640Z,4.84
2018-12-11T06:04:07.645Z,4.93
2018-12-11T06:05:07.655Z,4.87
2018-12-11T06:06:07.653Z,4.91
2018-12-11T06:07:07.655Z,4.87
2018-12-11T06:08:07.651Z,4.86
2018-12-11T06:09:07.651Z,4.86
2018-12-11T06:10:07.676Z,4.88
2018-12-11T06:11:07.652Z,4.86
2018-12-11T06:12:07.655Z,4.86
2018-12-11T06:13:07.662Z,4.91
2018-12-11T06:14:07.659Z,4.88
2018-12-11T06:15:07.658Z,4.84
2018-12-11T06:16:07.658Z,4.90
2018-12-11T06:17:07.670Z,4.80
2018-12-11T06:18:07.663Z,4.86
2018-12-11T06:19:07.671Z,4.88
2018-12-11T06:20:07.676Z,4.84
2018-12-11T06:21:07.675Z,4.90
2018-12-11T06:22:07.672Z,4.83
2018-12-11T06:23:07.681Z,4.83
2018-12-11T06:24:07.679Z,4.88
2018-12-11T06:25:07.696Z,4.83
2018-12-11T06:26:07.691Z,4.79
2018-12-11T06:27:07.683Z,4.72
2018-12-11T06:28:07.679Z,4.86
2018-12-11T06:29:07.690Z,4.83
2018-12-11T06:30:07.690Z,4.77
2018-12-11T06:31:07.687Z,4.79
2018-12-11T06:32:07.701Z,4.69
2018-12-11T06:33:07.719Z,4.72
2018-12-11T06:34:07.695Z,4.75
2018-12-11T06:35:07.684Z,4.68
2018-12-11T06:36:07.692Z,4.68
2018-12-11T06:37:07.697Z,4.69
2018-12-11T06:38:07.693Z,4.67
2018-12-11T06:39:07.714Z,4.71
2018-12-11T06:40:07.704Z,4.69
2018-12-11T06:41:07.709Z,4.75
2018-12-11T06:42:07.713Z,4.77
2018-12-11T06:43:07.701Z,4.75
2018-12-11T06:44:07.723Z,4.71
2018-12-11T06:45:07.710Z,4.80
2018-12-11T06:46:07.704Z,4.75
2018-12-11T06:47:07.717Z,4.83
2018-12-11T06:48:07.712Z,4.88
2018-12-11T06:49:07.716Z,4.91
2018-12-11T06:50:07.717Z,4.84
2018-12-11T06:51:07.725Z,4.84
2018-12-11T06:52:07.721Z,4.90
2018-12-11T06:53:07.728Z,4.90
2018-12-11T06:54:07.722Z,4.88
2018-12-11T06:55:07.750Z,4.87
2018-12-11T06:56:07.732Z,4.86
2018-12-11T06:57:07.726Z,4.86
2018-12-11T06:58:07.735Z,4.88
2018-12-11T06:59:07.728Z,4.88
2018-12-11T07:00:07.745Z,4.91
2018-12-11T07:01:07.731Z,4.83
2018-12-11T07:02:07.742Z,4.91
2018-12-11T07:03:07.743Z,4.86
2018-12-11T07:04:07.749Z,4.90
2018-12-11T07:05:07.743Z,4.88
2018-12-11T07:06:07.746Z,4.83
2018-12-11T07:07:07.755Z,4.88
2018-12-11T07:08:07.747Z,4.87
2018-12-11T07:09:07.752Z,4.86
2018-12-11T07:10:07.749Z,4.83
2018-12-11T07:11:07.760Z,4.90
2018-12-11T07:12:07.753Z,4.80
2018-12-11T07:13:07.764Z,4.87
2018-12-11T07:14:07.759Z,4.86
2018-12-11T07:15:07.761Z,4.91
2018-12-11T07:16:07.763Z,4.88
2018-12-11T07:17:07.772Z,4.83
2018-12-11T07:18:07.759Z,4.87
2018-12-11T07:19:07.769Z,4.86
2018-12-11T07:20:07.769Z,4.94
2018-12-11T07:21:07.773Z,4.84
2018-12-11T07:22:07.783Z,4.88
2018-12-11T07:23:07.772Z,4.88
2018-12-11T07:24:07.773Z,4.88
2018-12-11T07:25:07.788Z,4.87
2018-12-11T07:26:07.781Z,4.88
2018-12-11T07:27:07.779Z,4.83
2018-12-11T07:28:07.786Z,4.83
2018-12-11T07:29:07.784Z,4.84
2018-12-11T07:31:07.787Z,4.80
2018-12-11T07:32:07.786Z,4.79
2018-12-11T07:33:07.791Z,4.69
2018-12-11T07:34:07.793Z,4.74
2018-12-11T07:35:07.787Z,4.67
2018-12-11T07:36:07.796Z,4.62
2018-12-11T07:37:07.794Z,4.65
2018-12-11T07:38:07.799Z,4.69
2018-12-11T07:39:07.797Z,4.62
2018-12-11T07:40:07.801Z,4.65
2018-12-11T07:41:07.805Z,4.64
2018-12-11T07:42:07.805Z,4.68
2018-12-11T07:43:07.806Z,4.65
2018-12-11T07:44:07.821Z,4.68
2018-12-11T07:45:07.812Z,4.65
2018-12-11T07:47:07.814Z,4.65
2018-12-11T07:48:07.806Z,4.71
2018-12-11T07:49:07.811Z,4.69
2018-12-11T07:50:07.815Z,4.61
2018-12-11T07:51:07.817Z,4.64
2018-12-11T07:52:07.817Z,4.68
2018-12-11T07:53:07.821Z,4.74
2018-12-11T07:54:07.821Z,4.59
2018-12-11T07:55:07.830Z,4.69
2018-12-11T07:56:07.834Z,4.67
2018-12-11T07:57:07.857Z,4.65
2018-12-11T07:58:07.822Z,4.62
2018-12-11T07:59:07.836Z,4.71
2018-12-11T08:00:07.833Z,4.74
2018-12-11T08:01:07.842Z,4.72
2018-12-11T08:02:07.837Z,4.71
2018-12-11T08:03:07.838Z,4.84
2018-12-11T08:04:07.844Z,4.80
2018-12-11T08:05:07.856Z,4.91
2018-12-11T08:06:07.842Z,4.86
2018-12-11T08:07:07.838Z,4.84
2018-12-11T08:08:07.848Z,4.88
2018-12-11T08:09:07.850Z,4.86
2018-12-11T08:10:07.849Z,4.99
2018-12-11T08:11:07.853Z,4.87
2018-12-11T08:12:08.413Z,4.90
2018-12-11T08:13:07.863Z,4.87
2018-12-11T08:14:07.864Z,4.88
2018-12-11T08:15:07.860Z,4.93
2018-12-11T08:16:07.859Z,4.93
2018-12-11T08:17:07.868Z,4.91
2018-12-11T08:18:07.864Z,4.87
2018-12-11T08:19:07.873Z,4.91
2018-12-11T08:20:07.875Z,4.86
2018-12-11T08:21:07.872Z,4.86
2018-12-11T08:22:07.875Z,4.80
2018-12-11T08:23:07.884Z,4.87
2018-12-11T08:24:07.885Z,4.86
2018-12-11T08:25:07.876Z,4.91
2018-12-11T08:26:07.883Z,4.90
2018-12-11T08:27:07.882Z,4.88
2018-12-11T08:28:07.894Z,4.93
2018-12-11T08:29:07.900Z,5.02
2018-12-11T08:30:07.880Z,5.06
2018-12-11T08:31:07.891Z,5.02
2018-12-11T08:32:07.897Z,5.06
2018-12-11T08:33:07.896Z,5.04
2018-12-11T08:34:07.906Z,5.02
2018-12-11T08:35:07.902Z,5.01
2018-12-11T08:36:07.957Z,5.02
2018-12-11T08:37:07.919Z,5.06
2018-12-11T08:38:07.926Z,5.05
2018-12-11T08:39:07.907Z,5.12
2018-12-11T08:40:07.916Z,5.05
2018-12-11T08:41:07.923Z,4.94
2018-12-11T08:42:07.905Z,5.04
2018-12-11T08:43:07.946Z,5.01
2018-12-11T08:44:07.923Z,5.01
2018-12-11T08:46:07.926Z,5.11
2018-12-11T08:47:07.928Z,5.17
2018-12-11T08:48:07.933Z,5.17
2018-12-11T08:49:07.942Z,5.24
2018-12-11T08:50:07.948Z,5.26
2018-12-11T08:51:07.938Z,5.35
2018-12-11T08:52:07.937Z,5.35
2018-12-11T08:53:07.942Z,5.47
2018-12-11T08:54:07.945Z,5.51
2018-12-11T08:55:07.958Z,5.58
2018-12-11T08:56:07.958Z,5.60
2018-12-11T08:57:07.995Z,5.56
2018-12-11T08:58:07.959Z,5.62
2018-12-11T08:59:07.963Z,5.56
2018-12-11T09:00:07.979Z,5.60
2018-12-11T09:01:07.967Z,5.62
2018-12-11T09:02:07.973Z,5.63
2018-12-11T09:03:07.974Z,5.66
2018-12-11T09:04:07.977Z,5.70
2018-12-11T09:05:07.971Z,5.66
2018-12-11T09:06:07.990Z,5.67
2018-12-11T09:07:07.987Z,5.63
2018-12-11T09:08:07.990Z,5.67
2018-12-11T09:09:07.997Z,5.60
2018-12-11T09:10:07.995Z,5.63
2018-12-11T09:11:07.995Z,5.63
2018-12-11T09:12:08.002Z,5.66
2018-12-11T09:13:08.012Z,5.60
2018-12-11T09:14:08.012Z,5.67
2018-12-11T09:15:08.002Z,5.65
2018-12-11T09:16:08.015Z,5.60
2018-12-11T09:17:10.193Z,5.59
2018-12-11T09:18:08.009Z,5.63
2018-12-11T09:19:08.016Z,5.67
2018-12-11T09:20:08.024Z,5.74
2018-12-11T09:21:08.026Z,5.70
2018-12-11T09:22:08.038Z,5.73
2018-12-11T09:23:08.037Z,5.74
2018-12-11T09:24:08.051Z,5.81
2018-12-11T09:25:08.039Z,5.87
2018-12-11T09:26:08.046Z,5.88
2018-12-11T09:27:08.054Z,5.93
2018-12-11T09:28:10.947Z,5.87
2018-12-11T09:29:08.064Z,6.01
2018-12-11T09:30:08.061Z,5.99
2018-12-11T09:31:08.058Z,6.08
2018-12-11T09:32:08.062Z,6.13
2018-12-11T09:33:08.071Z,6.24
2018-12-11T09:34:08.070Z,6.32
2018-12-11T09:35:08.080Z,6.45
2018-12-11T09:36:08.090Z,6.51
2018-12-11T09:37:08.080Z,6.71
2018-12-11T09:38:08.083Z,6.71
2018-12-11T09:39:08.103Z,6.55
2018-12-11T09:40:08.083Z,6.43
2018-12-11T09:41:08.091Z,6.36
2018-12-11T09:42:08.094Z,6.27
2018-12-11T09:43:08.097Z,6.25
2018-12-11T09:44:08.101Z,6.19
2018-12-11T09:45:08.107Z,6.25
2018-12-11T09:46:08.118Z,6.24
2018-12-11T09:47:08.124Z,6.24
2018-12-11T09:48:08.134Z,6.19
2018-12-11T09:49:08.160Z,6.25
2018-12-11T09:50:08.136Z,6.30
2018-12-11T09:51:08.150Z,6.40
2018-12-11T09:52:08.136Z,6.35
2018-12-11T09:53:08.171Z,6.36
2018-12-11T09:54:08.146Z,6.19
2018-12-11T09:55:08.151Z,6.21
2018-12-11T09:56:08.158Z,6.27
2018-12-11T09:57:08.157Z,6.30
2018-12-11T09:58:08.166Z,6.42
2018-12-11T09:59:08.172Z,6.50
2018-12-11T10:00:08.170Z,6.46
2018-12-11T10:01:08.176Z,6.50
2018-12-11T10:02:08.167Z,6.51
2018-12-11T10:03:08.187Z,6.55
2018-12-11T10:04:08.184Z,6.63
2018-12-11T10:05:08.194Z,6.61
2018-12-11T10:06:08.208Z,6.73
2018-12-11T10:07:08.186Z,6.68
2018-12-11T10:08:08.194Z,6.69
2018-12-11T10:09:08.192Z,6.71
2018-12-11T10:10:08.213Z,6.76
2018-12-11T10:11:08.202Z,6.76
2018-12-11T10:12:08.216Z,6.78
2018-12-11T10:13:08.210Z,6.75
2018-12-11T10:14:08.223Z,6.69
2018-12-11T10:15:08.233Z,6.68
2018-12-11T10:16:08.223Z,6.51
2018-12-11T10:17:08.240Z,6.53
2018-12-11T10:18:08.235Z,6.48
2018-12-11T10:19:08.244Z,6.50
2018-12-11T10:20:08.246Z,6.48
2018-12-11T10:21:08.248Z,6.51
2018-12-11T10:22:08.263Z,6.63
2018-12-11T10:23:08.259Z,6.48
2018-12-11T10:24:08.271Z,6.69
2018-12-11T10:25:08.264Z,6.69
2018-12-11T10:26:08.275Z,6.73
2018-12-11T10:27:08.278Z,6.75
2018-12-11T10:28:08.285Z,6.76
2018-12-11T10:29:08.293Z,6.86
2018-12-11T10:30:08.326Z,6.94
2018-12-11T10:31:08.298Z,7.11
2018-12-11T10:32:08.303Z,7.08
2018-12-11T10:33:08.297Z,7.14
2018-12-11T10:34:08.301Z,7.11
2018-12-11T10:35:08.310Z,7.05
2018-12-11T10:36:08.316Z,7.24
2018-12-11T10:37:08.326Z,7.33
2018-12-11T10:38:08.340Z,7.47
2018-12-11T10:39:08.335Z,7.41
2018-12-11T10:40:08.337Z,7.39
2018-12-11T10:41:08.354Z,7.33
2018-12-11T10:42:08.348Z,7.33
2018-12-11T10:43:08.361Z,7.36
2018-12-11T10:44:08.355Z,7.34
2018-12-11T10:45:08.369Z,7.30
2018-12-11T10:46:08.377Z,7.34
2018-12-11T10:47:08.375Z,7.19
2018-12-11T10:48:08.383Z,7.30
2018-12-11T10:49:08.387Z,7.19
2018-12-11T10:50:08.392Z,7.21
2018-12-11T10:51:08.409Z,7.30
2018-12-11T10:52:08.382Z,7.27
2018-12-11T10:53:08.395Z,7.18
2018-12-11T10:54:08.407Z,7.26
2018-12-11T10:55:08.412Z,7.34
2018-12-11T10:56:08.404Z,7.32
2018-12-11T10:57:08.417Z,7.36
2018-12-11T10:58:08.420Z,7.44
2018-12-11T10:59:08.429Z,7.47
2018-12-11T11:00:08.426Z,7.42
2018-12-11T11:01:08.436Z,7.44
2018-12-11T11:02:08.445Z,7.45
2018-12-11T11:03:08.446Z,7.42
2018-12-11T11:04:08.450Z,7.45
2018-12-11T11:05:08.460Z,7.51
2018-12-11T11:06:08.461Z,7.63
2018-12-11T11:07:08.473Z,7.63
2018-12-11T11:08:08.471Z,7.60
2018-12-11T11:09:08.466Z,7.55
2018-12-11T11:10:08.471Z,7.50
2018-12-11T11:11:08.484Z,7.57
2018-12-11T11:12:08.490Z,7.45
2018-12-11T11:13:08.526Z,7.57
2018-12-11T11:14:08.502Z,7.69
2018-12-11T11:15:08.546Z,7.58
2018-12-11T11:16:08.508Z,7.50
2018-12-11T11:17:08.530Z,7.60
2018-12-11T11:18:08.527Z,7.62
2018-12-11T11:19:08.530Z,7.77
2018-12-11T11:20:08.540Z,7.81
2018-12-11T11:21:08.560Z,7.82
2018-12-11T11:22:08.554Z,7.85
2018-12-11T11:23:08.573Z,7.92
2018-12-11T11:24:08.554Z,7.88
2018-12-11T11:25:08.542Z,7.94
2018-12-11T11:26:08.555Z,7.92
2018-12-11T11:27:08.555Z,8.04
2018-12-11T11:28:08.573Z,8.09
2018-12-11T11:29:08.568Z,8.13
2018-12-11T11:30:08.572Z,8.13
2018-12-11T11:31:08.601Z,8.18
2018-12-11T11:32:08.606Z,8.27
2018-12-11T11:33:08.596Z,8.42
2018-12-11T11:34:08.597Z,8.54
2018-12-11T11:35:08.600Z,8.34
2018-12-11T11:36:08.610Z,8.43
2018-12-11T11:37:08.636Z,8.34
2018-12-11T11:38:08.618Z,8.37
2018-12-11T11:39:08.631Z,8.42
2018-12-11T11:40:08.641Z,8.54
2018-12-11T11:41:08.652Z,8.61
2018-12-11T11:43:08.663Z,8.75
2018-12-11T11:44:08.670Z,8.78
2018-12-11T11:45:08.674Z,8.67
2018-12-11T11:46:08.700Z,8.68
2018-12-11T11:48:08.682Z,8.83
2018-12-11T11:49:08.686Z,8.80
2018-12-11T11:50:08.690Z,8.85
2018-12-11T11:51:08.702Z,8.96
2018-12-11T11:52:08.721Z,9.03
2018-12-11T11:53:08.703Z,9.01
2018-12-11T11:54:08.714Z,8.88
2018-12-11T11:56:08.726Z,8.86
2018-12-11T11:57:08.737Z,8.71
2018-12-11T11:58:08.737Z,8.73
2018-12-11T11:59:08.739Z,8.79
2018-12-11T12:00:08.750Z,8.67
2018-12-11T12:01:08.766Z,8.73
2018-12-11T12:02:08.771Z,8.65
2018-12-11T12:03:08.776Z,8.64
2018-12-11T12:04:08.774Z,8.70
2018-12-11T12:05:08.783Z,8.67
2018-12-11T12:06:08.786Z,8.60
2018-12-11T12:07:08.809Z,8.58
2018-12-11T12:08:08.828Z,8.43
2018-12-11T12:09:08.805Z,8.36
2018-12-11T12:10:08.810Z,8.43
2018-12-11T12:11:08.821Z,8.46
2018-12-11T12:12:08.823Z,8.40
2018-12-11T12:13:08.834Z,8.46
2018-12-11T12:14:08.842Z,8.63
2018-12-11T12:15:08.843Z,8.68
2018-12-11T12:16:08.851Z,8.78
2018-12-11T12:17:08.854Z,8.89
2018-12-11T12:18:08.871Z,9.04
2018-12-11T12:19:08.879Z,9.03
2018-12-11T12:20:08.877Z,8.98
2018-12-11T12:21:08.866Z,8.89
2018-12-11T12:22:08.874Z,8.82
2018-12-11T12:23:08.882Z,8.86
2018-12-11T12:24:08.907Z,8.76
2018-12-11T12:25:08.892Z,8.73
2018-12-11T12:26:08.900Z,8.63
2018-12-11T12:27:08.902Z,8.63
2018-12-11T12:28:08.913Z,8.60
2018-12-11T12:29:08.919Z,8.54
2018-12-11T12:30:08.921Z,8.58
2018-12-11T12:31:08.926Z,8.46
2018-12-11T12:32:08.931Z,8.40
2018-12-11T12:33:08.948Z,8.24
2018-12-11T12:34:08.943Z,8.12
2018-12-11T12:35:08.955Z,8.20
2018-12-11T12:36:08.968Z,8.13
2018-12-11T12:37:08.957Z,8.14
2018-12-11T12:38:08.965Z,8.10
2018-12-11T12:39:08.969Z,8.18
2018-12-11T12:40:08.976Z,8.28
2018-12-11T12:41:08.978Z,8.46
2018-12-11T12:42:08.983Z,8.58
2018-12-11T12:43:08.992Z,8.64
2018-12-11T12:44:08.996Z,8.78
2018-12-11T12:45:08.996Z,8.82
2018-12-11T12:46:09.011Z,9.01
2018-12-11T12:47:09.019Z,9.03
2018-12-11T12:48:09.032Z,9.13
2018-12-11T12:49:09.024Z,9.19
2018-12-11T12:50:09.031Z,9.03
2018-12-11T12:51:09.036Z,8.82
2018-12-11T12:52:09.042Z,8.86
2018-12-11T12:53:09.049Z,8.71
2018-12-11T12:54:09.055Z,8.55
2018-12-11T12:55:09.058Z,8.60
2018-12-11T12:56:09.070Z,8.57
2018-12-11T12:57:09.073Z,8.52
2018-12-11T12:58:09.075Z,8.63
2018-12-11T12:59:09.086Z,8.64
2018-12-11T13:00:09.087Z,8.82
2018-12-11T13:01:09.090Z,8.79
2018-12-11T13:02:09.092Z,8.83
2018-12-11T13:03:09.099Z,8.78
2018-12-11T13:04:09.113Z,8.71
2018-12-11T13:05:09.116Z,8.61
2018-12-11T13:06:09.116Z,8.54
2018-12-11T13:07:09.127Z,8.42
2018-12-11T13:08:09.127Z,8.32
2018-12-11T13:10:09.151Z,8.21
2018-12-11T13:11:09.143Z,8.21
2018-12-11T13:13:09.499Z,8.17
2018-12-11T13:14:09.166Z,8.17
2018-12-11T13:15:09.175Z,8.20
2018-12-11T13:16:09.188Z,8.12
2018-12-11T13:17:09.178Z,8.28
2018-12-11T13:18:09.197Z,8.28
2018-12-11T13:19:09.185Z,8.45
2018-12-11T13:20:09.189Z,8.46
2018-12-11T13:21:09.192Z,8.42
2018-12-11T13:22:09.198Z,8.55
2018-12-11T13:23:09.209Z,8.57
2018-12-11T13:24:09.228Z,8.61
2018-12-11T13:25:09.207Z,8.64
2018-12-11T13:26:09.226Z,8.63
2018-12-11T13:27:09.224Z,8.80
2018-12-11T13:28:09.222Z,8.80
2018-12-11T13:29:09.233Z,8.89
2018-12-11T13:30:09.239Z,9.01
2018-12-11T13:31:09.242Z,9.04
2018-12-11T13:32:09.246Z,9.16
2018-12-11T13:33:09.253Z,9.06